sensor_id;sensor_type;location;lat;lon;timestamp;pressure;altitude;pressure_sealevel;temperature;humidity
47710;BME280;33473;51.640;5.892;2023-09-19T00:03:49;100600;;;22.0;51.0
47710;BME280;33473;51.640;5.892;2023-09-19T00:17:09;100600;;;21.9;51.0
47710;BME280;33473;51.640;5.892;2023-09-19T00:30:29;100600;;;21.9;50.0
47710;BME280;33473;51.640;5.892;2023-09-19T00:43:49;100600;;;21.7;51.0
47710;BME280;33473;51.640;5.892;2023-09-19T00:57:10;100600;;;21.6;51.0
47710;BME280;33473;51.640;5.892;2023-09-19T01:10:30;100700;;;21.6;50.0
47710;BME280;33473;51.640;5.892;2023-09-19T01:23:49;100700;;;21.5;51.0
47710;BME280;33473;51.640;5.892;2023-09-19T01:37:11;100700;;;21.4;50.0
47710;BME280;33473;51.640;5.892;2023-09-19T01:50:30;100700;;;21.3;49.0
47710;BME280;33473;51.640;5.892;2023-09-19T02:03:50;100700;;;21.3;48.0
47710;BME280;33473;51.640;5.892;2023-09-19T02:17:10;100700;;;21.2;48.0
47710;BME280;33473;51.640;5.892;2023-09-19T02:30:30;100700;;;21.2;48.0
47710;BME280;33473;51.640;5.892;2023-09-19T02:43:51;100700;;;21.1;48.0
47710;BME280;33473;51.640;5.892;2023-09-19T02:57:12;100700;;;20.9;48.0
47710;BME280;33473;51.640;5.892;2023-09-19T03:10:32;100700;;;20.7;48.0
47710;BME280;33473;51.640;5.892;2023-09-19T03:23:52;100700;;;20.7;47.0
47710;BME280;33473;51.640;5.892;2023-09-19T03:37:12;100700;;;20.5;47.0
47710;BME280;33473;51.640;5.892;2023-09-19T03:50:31;100700;;;20.5;47.0
47710;BME280;33473;51.640;5.892;2023-09-19T04:03:51;100700;;;20.4;47.0
47710;BME280;33473;51.640;5.892;2023-09-19T04:17:12;100700;;;20.3;48.0
47710;BME280;33473;51.640;5.892;2023-09-19T04:30:32;100700;;;20.3;48.0
47710;BME280;33473;51.640;5.892;2023-09-19T04:43:53;100800;;;20.2;49.0
47710;BME280;33473;51.640;5.892;2023-09-19T04:57:15;100800;;;20.2;49.0
47710;BME280;33473;51.640;5.892;2023-09-19T05:10:36;100800;;;20.3;49.0
47710;BME280;33473;51.640;5.892;2023-09-19T05:23:58;100800;;;20.3;49.0
47710;BME280;33473;51.640;5.892;2023-09-19T05:37:19;100800;;;20.4;49.0
47710;BME280;33473;51.640;5.892;2023-09-19T05:50:39;100800;;;20.4;49.0
47710;BME280;33473;51.640;5.892;2023-09-19T06:03:59;100800;;;20.6;49.0
47710;BME280;33473;51.640;5.892;2023-09-19T06:17:20;100800;;;20.6;50.0
47710;BME280;33473;51.640;5.892;2023-09-19T06:30:41;100800;;;20.8;50.0
47710;BME280;33473;51.640;5.892;2023-09-19T06:44:03;100800;;;20.9;50.0
47710;BME280;33473;51.640;5.892;2023-09-19T06:57:22;100900;;;21.1;50.0
47710;BME280;33473;51.640;5.892;2023-09-19T07:10:42;100800;;;21.3;50.0
47710;BME280;33473;51.640;5.892;2023-09-19T07:24:02;100900;;;21.4;50.0
47710;BME280;33473;51.640;5.892;2023-09-19T07:37:21;100900;;;21.7;50.0
47710;BME280;33473;51.640;5.892;2023-09-19T07:50:41;100900;;;21.7;49.0
47710;BME280;33473;51.640;5.892;2023-09-19T08:04:02;100900;;;22.1;50.0
47710;BME280;33473;51.640;5.892;2023-09-19T08:17:22;100900;;;22.2;49.0
47710;BME280;33473;51.640;5.892;2023-09-19T08:30:43;100900;;;22.6;48.0
47710;BME280;33473;51.640;5.892;2023-09-19T08:44:03;100900;;;23.1;47.0
47710;BME280;33473;51.640;5.892;2023-09-19T08:57:24;100900;;;23.4;47.0
47710;BME280;33473;51.640;5.892;2023-09-19T09:10:44;100900;;;23.7;47.0
47710;BME280;33473;51.640;5.892;2023-09-19T09:24:05;100900;;;23.9;43.0
47710;BME280;33473;51.640;5.892;2023-09-19T09:37:25;100900;;;24.4;45.0
47710;BME280;33473;51.640;5.892;2023-09-19T09:50:46;100800;;;24.7;42.0
47710;BME280;33473;51.640;5.892;2023-09-19T10:04:08;100800;;;25.0;42.0
47710;BME280;33473;51.640;5.892;2023-09-19T10:17:27;100800;;;25.1;41.0
47710;BME280;33473;51.640;5.892;2023-09-19T10:30:47;100800;;;25.2;40.0
47710;BME280;33473;51.640;5.892;2023-09-19T10:44:07;100800;;;25.2;40.0
47710;BME280;33473;51.640;5.892;2023-09-19T10:57:27;100800;;;25.4;40.0
47710;BME280;33473;51.640;5.892;2023-09-19T11:10:48;100800;;;25.9;40.0
47710;BME280;33473;51.640;5.892;2023-09-19T11:24:09;100800;;;25.6;38.0
47710;BME280;33473;51.640;5.892;2023-09-19T11:37:29;100800;;;25.9;39.0
47710;BME280;33473;51.640;5.892;2023-09-19T11:50:49;100800;;;26.2;39.0
47710;BME280;33473;51.640;5.892;2023-09-19T12:04:10;100800;;;26.3;38.0
47710;BME280;33473;51.640;5.892;2023-09-19T12:17:31;100800;;;26.6;38.0
47710;BME280;33473;51.640;5.892;2023-09-19T12:30:53;100700;;;26.4;38.0
47710;BME280;33473;51.640;5.892;2023-09-19T12:44:14;100700;;;26.6;37.0
47710;BME280;33473;51.640;5.892;2023-09-19T12:57:35;100800;;;26.0;36.0
47710;BME280;33473;51.640;5.892;2023-09-19T13:10:55;100800;;;26.1;37.0
47710;BME280;33473;51.640;5.892;2023-09-19T13:24:16;100800;;;26.4;39.0
47710;BME280;33473;51.640;5.892;2023-09-19T13:37:38;100800;;;26.4;38.0
47710;BME280;33473;51.640;5.892;2023-09-19T13:50:57;100800;;;26.0;38.0
47710;BME280;33473;51.640;5.892;2023-09-19T14:04:19;100800;;;26.2;39.0
47710;BME280;33473;51.640;5.892;2023-09-19T14:17:38;100700;;;26.4;38.0
47710;BME280;33473;51.640;5.892;2023-09-19T14:31:00;100700;;;26.1;39.0
47710;BME280;33473;51.640;5.892;2023-09-19T14:44:21;100800;;;25.9;39.0
47710;BME280;33473;51.640;5.892;2023-09-19T14:57:40;100700;;;26.0;40.0
47710;BME280;33473;51.640;5.892;2023-09-19T15:11:02;100700;;;25.9;41.0
47710;BME280;33473;51.640;5.892;2023-09-19T15:24:22;100700;;;25.9;40.0
47710;BME280;33473;51.640;5.892;2023-09-19T15:37:43;100700;;;26.0;40.0
47710;BME280;33473;51.640;5.892;2023-09-19T15:51:04;100700;;;25.8;40.0
47710;BME280;33473;51.640;5.892;2023-09-19T16:04:24;100700;;;25.7;41.0
47710;BME280;33473;51.640;5.892;2023-09-19T16:17:45;100700;;;25.1;40.0
47710;BME280;33473;51.640;5.892;2023-09-19T16:31:05;100700;;;25.4;40.0
47710;BME280;33473;51.640;5.892;2023-09-19T16:44:25;100700;;;25.4;41.0
47710;BME280;33473;51.640;5.892;2023-09-19T16:57:45;100700;;;25.3;41.0
47710;BME280;33473;51.640;5.892;2023-09-19T17:11:06;100700;;;25.3;41.0
47710;BME280;33473;51.640;5.892;2023-09-19T17:24:27;100800;;;25.1;41.0
47710;BME280;33473;51.640;5.892;2023-09-19T17:37:47;100700;;;25.2;41.0
47710;BME280;33473;51.640;5.892;2023-09-19T17:51:06;100700;;;24.9;41.0
47710;BME280;33473;51.640;5.892;2023-09-19T18:04:26;100700;;;24.7;42.0
47710;BME280;33473;51.640;5.892;2023-09-19T18:17:47;100800;;;25.0;42.0
47710;BME280;33473;51.640;5.892;2023-09-19T18:31:07;100800;;;24.9;43.0
47710;BME280;33473;51.640;5.892;2023-09-19T18:44:27;100800;;;24.9;43.0
47710;BME280;33473;51.640;5.892;2023-09-19T18:57:47;100800;;;24.9;42.0
47710;BME280;33473;51.640;5.892;2023-09-19T19:11:06;100800;;;24.7;42.0
47710;BME280;33473;51.640;5.892;2023-09-19T19:24:27;100800;;;24.9;42.0
47710;BME280;33473;51.640;5.892;2023-09-19T19:37:49;100800;;;24.8;42.0
47710;BME280;33473;51.640;5.892;2023-09-19T19:51:09;100800;;;24.7;43.0
47710;BME280;33473;51.640;5.892;2023-09-19T20:04:28;100800;;;24.5;43.0
47710;BME280;33473;51.640;5.892;2023-09-19T20:17:48;100800;;;24.7;43.0
47710;BME280;33473;51.640;5.892;2023-09-19T20:31:08;100800;;;24.6;43.0
47710;BME280;33473;51.640;5.892;2023-09-19T20:44:28;100800;;;24.6;43.0
47710;BME280;33473;51.640;5.892;2023-09-19T20:57:49;100800;;;24.6;42.0
47710;BME280;33473;51.640;5.892;2023-09-19T21:11:09;100800;;;24.7;43.0
47710;BME280;33473;51.640;5.892;2023-09-19T21:24:30;100700;;;24.6;43.0
47710;BME280;33473;51.640;5.892;2023-09-19T21:37:51;100800;;;24.6;42.0
47710;BME280;33473;51.640;5.892;2023-09-19T21:51:11;100700;;;24.6;43.0
47710;BME280;33473;51.640;5.892;2023-09-19T22:04:31;100700;;;24.7;43.0
47710;BME280;33473;51.640;5.892;2023-09-19T22:17:52;100700;;;24.7;43.0
47710;BME280;33473;51.640;5.892;2023-09-19T22:31:12;100700;;;24.7;43.0
47710;BME280;33473;51.640;5.892;2023-09-19T22:44:33;100700;;;24.6;43.0
47710;BME280;33473;51.640;5.892;2023-09-19T22:57:53;100700;;;24.6;43.0
47710;BME280;33473;51.640;5.892;2023-09-19T23:11:14;100700;;;24.4;44.0
47710;BME280;33473;51.640;5.892;2023-09-19T23:24:34;100700;;;24.2;44.0
47710;BME280;33473;51.640;5.892;2023-09-19T23:37:55;100700;;;24.1;44.0
47710;BME280;33473;51.640;5.892;2023-09-19T23:51:16;100700;;;24.0;45.0
